createdAt,value
2022-09-13T00:01:45.570Z,16.90
2022-09-13T00:04:12.411Z,16.90
2022-09-13T00:06:39.015Z,16.80
2022-09-13T00:09:05.657Z,16.60
2022-09-13T00:11:32.414Z,16.60
2022-09-13T00:13:59.393Z,16.60
2022-09-13T00:16:28.633Z,16.60
2022-09-13T00:18:56.120Z,16.60
2022-09-13T00:21:24.446Z,16.60
2022-09-13T00:23:53.445Z,16.60
2022-09-13T00:26:23.177Z,16.70
2022-09-13T00:28:56.074Z,16.70
2022-09-13T00:31:25.224Z,16.70
2022-09-13T00:33:51.942Z,16.70
2022-09-13T00:36:19.083Z,16.70
2022-09-13T00:38:46.015Z,16.60
2022-09-13T00:41:18.563Z,16.60
2022-09-13T00:43:48.536Z,16.60
2022-09-13T00:46:38.145Z,16.60
2022-09-13T00:49:34.160Z,16.30
2022-09-13T00:52:06.994Z,16.40
2022-09-13T00:54:45.362Z,16.40
2022-09-13T00:57:13.988Z,16.20
2022-09-13T01:00:14.123Z,16.30
2022-09-13T01:02:48.680Z,16.40
2022-09-13T01:05:18.790Z,16.30
2022-09-13T01:07:46.226Z,16.40
2022-09-13T01:10:12.886Z,16.40
2022-09-13T01:13:06.303Z,16.40
2022-09-13T01:15:32.972Z,16.40
2022-09-13T01:17:59.778Z,16.40
2022-09-13T01:20:44.263Z,16.20
2022-09-13T01:23:33.703Z,16.20
2022-09-13T01:26:54.765Z,16.30
2022-09-13T01:29:42.539Z,16.20
2022-09-13T01:32:28.939Z,15.90
2022-09-13T01:35:40.333Z,15.60
2022-09-13T01:38:06.884Z,15.50
2022-09-13T01:40:48.394Z,15.70
2022-09-13T01:43:58.405Z,15.80
2022-09-13T01:46:46.144Z,15.90
2022-09-13T01:49:27.781Z,16.00
2022-09-13T01:52:09.499Z,16.00
2022-09-13T01:54:45.625Z,16.00
2022-09-13T01:57:31.563Z,16.00
2022-09-13T02:00:15.106Z,16.00
2022-09-13T02:02:53.483Z,16.00
2022-09-13T02:05:47.724Z,16.00
2022-09-13T02:08:27.346Z,15.70
2022-09-13T02:11:23.936Z,15.50
2022-09-13T02:14:05.688Z,15.20
2022-09-13T02:16:38.199Z,15.00
2022-09-13T02:19:16.567Z,15.00
2022-09-13T02:21:47.777Z,15.10
2022-09-13T02:24:19.297Z,15.40
2022-09-13T02:26:49.309Z,15.40
2022-09-13T02:29:19.826Z,15.60
2022-09-13T02:31:54.940Z,15.70
2022-09-13T02:34:31.929Z,15.80
2022-09-13T02:36:59.803Z,15.80
2022-09-13T02:39:29.332Z,15.70
2022-09-13T02:42:11.782Z,15.70
2022-09-13T02:44:46.004Z,15.70
2022-09-13T02:47:31.069Z,15.70
2022-09-13T02:50:23.850Z,15.80
2022-09-13T02:53:03.520Z,15.80
2022-09-13T02:55:44.386Z,15.80
2022-09-13T02:58:27.241Z,15.60
2022-09-13T03:00:55.741Z,15.60
2022-09-13T03:03:22.478Z,15.70
2022-09-13T03:05:49.268Z,15.70
2022-09-13T03:08:18.306Z,15.60
2022-09-13T03:11:08.105Z,15.50
2022-09-13T03:13:49.263Z,15.70
2022-09-13T03:16:45.324Z,15.80
2022-09-13T03:19:49.492Z,15.90
2022-09-13T03:22:30.134Z,16.00
2022-09-13T03:25:33.931Z,15.90
2022-09-13T03:28:22.073Z,15.70
2022-09-13T03:30:58.212Z,15.80
2022-09-13T03:34:06.933Z,15.90
2022-09-13T03:36:37.667Z,16.00
2022-09-13T03:39:21.907Z,16.00
2022-09-13T03:41:56.508Z,16.10
2022-09-13T03:44:24.599Z,16.10
2022-09-13T03:46:57.879Z,16.10
2022-09-13T03:49:27.007Z,16.10
2022-09-13T03:51:54.793Z,16.10
2022-09-13T03:54:25.777Z,16.10
2022-09-13T03:57:16.687Z,16.10
2022-09-13T03:59:48.455Z,16.20
2022-09-13T04:02:16.276Z,16.20
2022-09-13T04:04:44.283Z,16.20
2022-09-13T04:07:14.031Z,16.20
2022-09-13T04:09:40.661Z,16.20
2022-09-13T04:12:09.969Z,16.20
2022-09-13T04:14:36.750Z,16.20
2022-09-13T04:17:03.573Z,16.20
2022-09-13T04:19:31.373Z,16.20
2022-09-13T04:21:58.108Z,16.20
2022-09-13T04:24:26.884Z,16.20
2022-09-13T04:26:54.434Z,16.20
2022-09-13T04:29:22.750Z,16.20
2022-09-13T04:31:50.766Z,16.20
2022-09-13T04:34:18.462Z,16.30
2022-09-13T04:36:46.105Z,16.20
2022-09-13T04:39:15.519Z,16.10
2022-09-13T04:41:44.578Z,16.10
2022-09-13T04:44:11.590Z,16.20
2022-09-13T04:46:38.193Z,16.20
2022-09-13T04:49:04.876Z,16.20
2022-09-13T04:51:31.480Z,16.20
2022-09-13T04:53:58.125Z,16.20
2022-09-13T04:56:26.391Z,16.20
2022-09-13T04:58:54.967Z,16.20
2022-09-13T05:01:27.097Z,16.00
2022-09-13T05:03:54.737Z,15.70
2022-09-13T05:06:22.687Z,15.60
2022-09-13T05:08:55.160Z,15.80
2022-09-13T05:11:23.686Z,15.90
2022-09-13T05:13:55.221Z,16.00
2022-09-13T05:16:23.952Z,16.00
2022-09-13T05:18:51.348Z,16.10
2022-09-13T05:21:18.741Z,16.00
2022-09-13T05:23:48.474Z,16.00
2022-09-13T05:26:15.487Z,16.10
2022-09-13T05:28:42.176Z,16.20
2022-09-13T05:31:24.765Z,16.20
2022-09-13T05:33:58.738Z,16.30
2022-09-13T05:36:26.116Z,16.30
2022-09-13T05:39:12.128Z,16.40
2022-09-13T05:41:41.429Z,16.40
2022-09-13T05:44:13.150Z,16.40
2022-09-13T05:46:40.793Z,16.40
2022-09-13T05:49:07.388Z,16.30
2022-09-13T05:51:34.011Z,16.20
2022-09-13T05:54:00.650Z,16.00
2022-09-13T05:56:29.887Z,16.00
2022-09-13T05:58:56.746Z,16.10
2022-09-13T06:01:26.164Z,16.30
2022-09-13T06:03:59.906Z,16.30
2022-09-13T06:06:26.696Z,16.40
2022-09-13T06:08:54.597Z,16.30
2022-09-13T06:11:21.758Z,16.20
2022-09-13T06:13:48.769Z,16.40
2022-09-13T06:16:16.997Z,16.40
2022-09-13T06:18:44.427Z,16.50
2022-09-13T06:21:17.695Z,16.50
2022-09-13T06:23:48.590Z,16.50
2022-09-13T06:26:17.345Z,16.60
2022-09-13T06:28:51.359Z,16.60
2022-09-13T06:31:20.309Z,16.70
2022-09-13T06:33:47.506Z,16.80
2022-09-13T06:36:19.146Z,16.80
2022-09-13T06:38:47.083Z,16.70
2022-09-13T06:41:15.894Z,16.80
2022-09-13T06:43:42.485Z,16.80
2022-09-13T06:46:24.648Z,16.90
2022-09-13T06:48:52.558Z,16.90
2022-09-13T06:51:22.082Z,16.90
2022-09-13T06:53:49.587Z,16.90
2022-09-13T06:56:18.006Z,16.90
2022-09-13T06:58:47.286Z,16.90
2022-09-13T07:01:23.122Z,17.00
2022-09-13T07:03:55.501Z,17.00
2022-09-13T07:06:24.477Z,17.00
2022-09-13T07:08:52.973Z,17.00
2022-09-13T07:11:21.539Z,17.00
2022-09-13T07:13:52.902Z,17.00
2022-09-13T07:16:21.116Z,17.10
2022-09-13T07:18:55.437Z,17.10
2022-09-13T07:21:22.987Z,17.10
2022-09-13T07:23:51.017Z,17.00
2022-09-13T07:26:17.847Z,17.00
2022-09-13T07:28:46.689Z,17.10
2022-09-13T07:31:16.437Z,17.00
2022-09-13T07:33:44.224Z,16.90
2022-09-13T07:36:12.066Z,16.90
2022-09-13T07:38:40.878Z,16.80
2022-09-13T07:41:12.302Z,16.80
2022-09-13T07:43:39.233Z,16.60
2022-09-13T07:46:09.323Z,16.60
2022-09-13T07:48:38.140Z,16.70
2022-09-13T07:51:28.787Z,16.70
2022-09-13T07:53:57.974Z,16.70
2022-09-13T07:56:30.257Z,16.80
2022-09-13T07:59:00.760Z,16.80
2022-09-13T08:01:38.789Z,16.90
2022-09-13T08:04:08.412Z,17.00
2022-09-13T08:06:37.249Z,17.00
2022-09-13T08:09:05.163Z,17.10
2022-09-13T08:11:35.040Z,17.20
2022-09-13T08:14:02.794Z,17.30
2022-09-13T08:16:30.630Z,17.30
2022-09-13T08:19:01.744Z,17.40
2022-09-13T08:21:33.818Z,17.50
2022-09-13T08:24:00.639Z,17.50
2022-09-13T08:26:29.128Z,17.60
2022-09-13T08:28:58.182Z,17.70
2022-09-13T08:31:25.499Z,17.70
2022-09-13T08:33:52.377Z,17.80
2022-09-13T08:36:19.852Z,17.80
2022-09-13T08:38:48.652Z,17.80
2022-09-13T08:41:37.163Z,17.80
2022-09-13T08:44:33.340Z,17.70
2022-09-13T08:47:06.397Z,17.80
2022-09-13T08:49:40.578Z,17.80
2022-09-13T08:52:28.116Z,17.70
2022-09-13T08:54:58.308Z,17.60
2022-09-13T08:57:58.697Z,17.70
2022-09-13T09:00:46.522Z,17.50
2022-09-13T09:03:28.279Z,17.50
2022-09-13T09:05:55.023Z,17.50
2022-09-13T09:08:42.255Z,17.50
2022-09-13T09:11:30.590Z,17.50
2022-09-13T09:14:20.757Z,17.60
2022-09-13T09:16:53.483Z,17.60
2022-09-13T09:19:35.895Z,17.70
2022-09-13T09:22:09.467Z,17.70
2022-09-13T09:24:38.694Z,17.80
2022-09-13T09:27:19.811Z,17.80
2022-09-13T09:29:48.798Z,17.90
2022-09-13T09:32:27.400Z,17.90
2022-09-13T09:35:15.733Z,17.90
2022-09-13T09:37:45.947Z,17.80
2022-09-13T09:40:14.216Z,17.80
2022-09-13T09:42:46.943Z,17.90
2022-09-13T09:45:42.748Z,18.00
2022-09-13T09:48:17.986Z,18.00
2022-09-13T09:50:49.972Z,17.90
2022-09-13T09:53:20.824Z,17.90
2022-09-13T09:56:05.855Z,18.00
2022-09-13T09:58:43.952Z,18.00
2022-09-13T10:01:34.934Z,17.80
2022-09-13T10:04:22.456Z,17.80
2022-09-13T10:06:49.815Z,17.70
2022-09-13T10:09:18.170Z,17.70
2022-09-13T10:11:56.960Z,17.70
2022-09-13T10:14:28.207Z,17.60
2022-09-13T10:17:16.185Z,17.70
2022-09-13T10:19:52.609Z,17.70
2022-09-13T10:22:19.199Z,17.80
2022-09-13T10:24:46.462Z,17.80
2022-09-13T10:27:39.798Z,17.80
2022-09-13T10:30:46.888Z,17.90
2022-09-13T10:33:31.629Z,17.90
2022-09-13T10:36:02.731Z,17.90
2022-09-13T10:38:44.060Z,18.00
2022-09-13T10:41:23.196Z,18.00
2022-09-13T10:44:00.375Z,18.00
2022-09-13T10:46:32.904Z,18.10
2022-09-13T10:49:01.405Z,18.10
2022-09-13T10:51:27.929Z,18.20
2022-09-13T10:54:15.416Z,18.20
2022-09-13T10:56:45.410Z,18.20
2022-09-13T10:59:21.649Z,18.20
2022-09-13T11:02:22.561Z,18.30
2022-09-13T11:05:09.425Z,18.30
2022-09-13T11:08:19.770Z,18.30
2022-09-13T11:10:52.199Z,18.30
2022-09-13T11:13:36.955Z,18.40
2022-09-13T11:16:23.959Z,18.40
2022-09-13T11:18:53.334Z,18.40
2022-09-13T11:21:38.817Z,18.40
2022-09-13T11:24:14.389Z,18.40
2022-09-13T11:27:02.411Z,18.50
2022-09-13T11:29:52.551Z,18.50
2022-09-13T11:32:37.851Z,18.50
2022-09-13T11:35:22.977Z,18.50
2022-09-13T11:38:12.899Z,18.40
2022-09-13T11:40:45.123Z,18.40
2022-09-13T11:43:47.522Z,18.30
2022-09-13T11:46:53.406Z,18.30
2022-09-13T11:49:58.805Z,18.30
2022-09-13T11:52:46.515Z,18.30
2022-09-13T11:55:23.559Z,18.30
2022-09-13T11:57:53.273Z,18.30
2022-09-13T12:00:25.858Z,18.30
2022-09-13T12:03:11.119Z,18.30
2022-09-13T12:05:49.198Z,18.30
2022-09-13T12:08:27.941Z,18.30
2022-09-13T12:11:04.589Z,18.40
2022-09-13T12:13:43.653Z,18.50
2022-09-13T12:16:17.651Z,18.60
2022-09-13T12:18:48.473Z,18.60
2022-09-13T12:21:20.012Z,18.60
2022-09-13T12:24:01.274Z,18.60
2022-09-13T12:26:41.888Z,18.60
2022-09-13T12:29:33.811Z,18.60
2022-09-13T12:32:04.161Z,18.70
2022-09-13T12:34:57.047Z,18.70
2022-09-13T12:37:56.942Z,18.70
2022-09-13T12:40:51.434Z,18.70
2022-09-13T12:43:49.098Z,18.80
2022-09-13T12:46:39.199Z,18.80
2022-09-13T12:49:23.883Z,18.90
2022-09-13T12:51:53.492Z,18.90
2022-09-13T12:54:38.477Z,19.00
2022-09-13T12:57:20.270Z,19.00
2022-09-13T13:00:24.329Z,19.10
2022-09-13T13:03:13.691Z,19.10
2022-09-13T13:05:45.778Z,19.10
2022-09-13T13:08:21.470Z,19.20
2022-09-13T13:10:59.864Z,19.20
2022-09-13T13:13:45.469Z,19.30
2022-09-13T13:16:27.359Z,19.20
2022-09-13T13:19:05.527Z,19.20
2022-09-13T13:21:34.628Z,19.20
2022-09-13T13:24:16.591Z,19.20
2022-09-13T13:26:43.413Z,19.20
2022-09-13T13:29:23.188Z,19.20
2022-09-13T13:32:03.934Z,19.20
2022-09-13T13:34:49.625Z,19.30
2022-09-13T13:37:18.574Z,19.30
2022-09-13T13:39:47.772Z,19.30
2022-09-13T13:42:38.086Z,19.30
2022-09-13T13:45:24.671Z,19.40
2022-09-13T13:48:09.926Z,19.40
2022-09-13T13:51:17.656Z,19.40
2022-09-13T13:53:49.845Z,19.50
2022-09-13T13:56:29.991Z,19.50
2022-09-13T13:59:03.117Z,19.50
2022-09-13T14:01:33.430Z,19.50
2022-09-13T14:04:21.548Z,19.50
2022-09-13T14:07:29.301Z,19.50
2022-09-13T14:10:04.778Z,19.50
2022-09-13T14:13:18.065Z,19.50
2022-09-13T14:16:05.401Z,19.50
2022-09-13T14:18:53.819Z,19.60
2022-09-13T14:21:29.493Z,19.60
2022-09-13T14:24:24.529Z,19.60
2022-09-13T14:26:58.264Z,19.60
2022-09-13T14:29:28.210Z,19.60
2022-09-13T14:32:02.132Z,19.60
2022-09-13T14:34:31.925Z,19.60
2022-09-13T14:37:00.778Z,19.60
2022-09-13T14:39:28.260Z,19.60
2022-09-13T14:42:03.890Z,19.60
2022-09-13T14:44:30.527Z,19.70
2022-09-13T14:47:21.584Z,19.70
2022-09-13T14:49:53.593Z,19.70
2022-09-13T14:52:33.994Z,19.70
2022-09-13T14:55:06.632Z,19.70
2022-09-13T14:57:38.439Z,19.70
2022-09-13T15:00:18.533Z,19.70
2022-09-13T15:02:55.815Z,19.80
2022-09-13T15:05:25.849Z,19.80
2022-09-13T15:07:52.923Z,19.80
2022-09-13T15:10:26.710Z,19.80
2022-09-13T15:12:58.207Z,19.80
2022-09-13T15:15:46.295Z,19.80
2022-09-13T15:18:15.621Z,19.70
2022-09-13T15:20:50.769Z,19.70
2022-09-13T15:23:35.558Z,19.70
2022-09-13T15:26:10.274Z,19.70
2022-09-13T15:28:49.110Z,19.80
2022-09-13T15:31:24.443Z,19.70
2022-09-13T15:34:20.261Z,19.70
2022-09-13T15:36:48.978Z,19.70
2022-09-13T15:39:20.776Z,19.80
2022-09-13T15:41:59.195Z,19.70
2022-09-13T15:44:27.088Z,19.70
2022-09-13T15:46:56.459Z,19.70
2022-09-13T15:49:27.823Z,19.70
2022-09-13T15:52:02.533Z,19.70
2022-09-13T15:54:39.196Z,19.70
2022-09-13T15:57:17.766Z,19.70
2022-09-13T15:59:44.588Z,19.70
2022-09-13T16:02:23.315Z,19.70
2022-09-13T16:04:50.338Z,19.70
2022-09-13T16:07:17.337Z,19.70
2022-09-13T16:09:45.166Z,19.70
2022-09-13T16:12:12.328Z,19.70
2022-09-13T16:14:38.954Z,19.70
2022-09-13T16:17:26.794Z,19.70
2022-09-13T16:19:55.263Z,19.70
2022-09-13T16:22:22.733Z,19.70
2022-09-13T16:24:49.737Z,19.70
2022-09-13T16:27:18.548Z,19.70
2022-09-13T16:29:45.733Z,19.70
2022-09-13T16:32:12.412Z,19.70
2022-09-13T16:34:39.402Z,19.70
2022-09-13T16:37:06.066Z,19.80
2022-09-13T16:39:32.670Z,19.70
2022-09-13T16:41:59.303Z,19.80
2022-09-13T16:44:25.947Z,19.70
2022-09-13T16:46:52.653Z,19.70
2022-09-13T16:49:19.344Z,19.70
2022-09-13T16:51:45.975Z,19.70
2022-09-13T16:54:12.701Z,19.70
2022-09-13T16:56:39.296Z,19.80
2022-09-13T16:59:05.895Z,19.80
2022-09-13T17:01:32.636Z,19.70
2022-09-13T17:03:59.503Z,19.70
2022-09-13T17:06:27.252Z,19.80
2022-09-13T17:08:57.087Z,19.70
2022-09-13T17:11:26.369Z,19.70
2022-09-13T17:13:53.654Z,19.70
2022-09-13T17:16:34.447Z,19.70
2022-09-13T17:19:06.567Z,19.70
2022-09-13T17:21:33.836Z,19.70
2022-09-13T17:24:01.524Z,19.70
2022-09-13T17:26:28.192Z,19.70
2022-09-13T17:28:54.802Z,19.70
2022-09-13T17:31:21.523Z,19.70
2022-09-13T17:33:48.354Z,19.70
2022-09-13T17:36:15.338Z,19.70
2022-09-13T17:38:42.646Z,19.70
2022-09-13T17:41:12.220Z,19.70
2022-09-13T17:43:39.918Z,19.60
2022-09-13T17:46:11.947Z,19.70
2022-09-13T17:48:39.809Z,19.60
2022-09-13T17:51:29.159Z,19.60
2022-09-13T17:54:01.165Z,19.60
2022-09-13T17:56:30.639Z,19.60
2022-09-13T17:59:07.908Z,19.60
2022-09-13T18:01:38.714Z,19.60
2022-09-13T18:04:09.258Z,19.60
2022-09-13T18:06:37.889Z,19.60
2022-09-13T18:09:04.995Z,19.60
2022-09-13T18:11:31.845Z,19.60
2022-09-13T18:13:58.762Z,19.60
2022-09-13T18:16:27.510Z,19.60
2022-09-13T18:18:54.292Z,19.60
2022-09-13T18:21:23.530Z,19.60
2022-09-13T18:23:57.963Z,19.60
2022-09-13T18:26:26.203Z,19.60
2022-09-13T18:29:03.365Z,19.60
2022-09-13T18:31:32.010Z,19.60
2022-09-13T18:34:02.278Z,19.60
2022-09-13T18:36:30.746Z,19.60
2022-09-13T18:38:57.977Z,19.50
2022-09-13T18:41:31.666Z,19.50
2022-09-13T18:43:59.721Z,19.50
2022-09-13T18:46:30.289Z,19.50
2022-09-13T18:48:57.772Z,19.50
2022-09-13T18:51:30.882Z,19.50
2022-09-13T18:53:59.529Z,19.50
2022-09-13T18:56:27.567Z,19.50
2022-09-13T18:58:54.927Z,19.50
2022-09-13T19:01:23.143Z,19.50
2022-09-13T19:04:01.438Z,19.50
2022-09-13T19:06:34.029Z,19.50
2022-09-13T19:09:01.533Z,19.50
2022-09-13T19:11:46.283Z,19.50
2022-09-13T19:14:16.336Z,19.50
2022-09-13T19:16:42.951Z,19.40
2022-09-13T19:19:09.627Z,19.40
2022-09-13T19:21:36.237Z,19.40
2022-09-13T19:24:08.033Z,19.40
2022-09-13T19:26:38.287Z,19.40
2022-09-13T19:29:07.522Z,19.40
2022-09-13T19:31:36.627Z,19.40
2022-09-13T19:34:06.058Z,19.40
2022-09-13T19:36:34.656Z,19.40
2022-09-13T19:39:02.033Z,19.40
2022-09-13T19:41:32.495Z,19.40
2022-09-13T19:44:01.459Z,19.40
2022-09-13T19:46:31.605Z,19.40
2022-09-13T19:48:59.842Z,19.40
2022-09-13T19:51:35.580Z,19.40
2022-09-13T19:54:03.547Z,19.40
2022-09-13T19:56:32.627Z,19.30
2022-09-13T19:59:00.731Z,19.30
2022-09-13T20:01:33.854Z,19.30
2022-09-13T20:04:03.334Z,19.30
2022-09-13T20:06:35.244Z,19.30
2022-09-13T20:09:05.480Z,19.30
2022-09-13T20:11:33.017Z,19.30
2022-09-13T20:14:00.613Z,19.30
2022-09-13T20:16:31.949Z,19.30
2022-09-13T20:18:58.760Z,19.30
2022-09-13T20:21:27.202Z,19.30
2022-09-13T20:23:58.041Z,19.30
2022-09-13T20:26:26.075Z,19.30
2022-09-13T20:29:02.384Z,19.30
2022-09-13T20:31:30.607Z,19.30
2022-09-13T20:33:59.171Z,19.30
2022-09-13T20:36:29.561Z,19.30
2022-09-13T20:39:02.388Z,19.20
2022-09-13T20:41:31.125Z,19.20
2022-09-13T20:44:01.702Z,19.20
2022-09-13T20:46:31.099Z,19.20
2022-09-13T20:48:58.166Z,19.10
2022-09-13T20:51:25.418Z,19.10
2022-09-13T20:53:57.878Z,19.10
2022-09-13T20:56:24.718Z,19.10
2022-09-13T20:58:57.439Z,19.10
2022-09-13T21:01:25.091Z,19.10
2022-09-13T21:03:54.705Z,19.10
2022-09-13T21:06:23.406Z,19.10
2022-09-13T21:08:50.680Z,19.10
2022-09-13T21:11:22.948Z,19.10
2022-09-13T21:13:54.843Z,19.10
2022-09-13T21:16:23.911Z,19.10
2022-09-13T21:18:51.429Z,19.10
2022-09-13T21:21:23.689Z,19.10
2022-09-13T21:23:50.800Z,19.10
2022-09-13T21:26:20.314Z,19.10
2022-09-13T21:28:47.761Z,19.10
2022-09-13T21:31:23.538Z,19.10
2022-09-13T21:33:57.803Z,19.00
2022-09-13T21:36:25.240Z,19.00
2022-09-13T21:38:54.174Z,19.00
2022-09-13T21:41:21.092Z,19.00
2022-09-13T21:43:47.765Z,19.00
2022-09-13T21:46:17.019Z,18.90
2022-09-13T21:48:46.345Z,18.90
2022-09-13T21:51:18.825Z,18.90
2022-09-13T21:53:46.869Z,18.90
2022-09-13T21:56:18.537Z,18.90
2022-09-13T21:58:53.551Z,18.90
2022-09-13T22:01:23.161Z,18.90
2022-09-13T22:03:51.808Z,18.90
2022-09-13T22:06:19.803Z,19.00
2022-09-13T22:08:49.317Z,19.00
2022-09-13T22:11:28.344Z,19.00
2022-09-13T22:13:57.274Z,19.00
2022-09-13T22:16:26.628Z,19.00
2022-09-13T22:18:56.091Z,19.00
2022-09-13T22:21:29.695Z,19.00
2022-09-13T22:23:58.076Z,19.00
2022-09-13T22:26:27.354Z,19.00
2022-09-13T22:28:55.870Z,19.10
2022-09-13T22:31:31.307Z,19.00
2022-09-13T22:34:02.107Z,19.00
2022-09-13T22:36:29.632Z,19.00
2022-09-13T22:38:56.986Z,19.00
2022-09-13T22:41:29.952Z,19.00
2022-09-13T22:43:58.954Z,18.90
2022-09-13T22:46:34.147Z,18.90
2022-09-13T22:49:01.243Z,18.90
2022-09-13T22:51:28.624Z,18.90
2022-09-13T22:53:56.413Z,18.90
2022-09-13T22:56:24.339Z,19.00
2022-09-13T22:58:55.917Z,18.90
2022-09-13T23:01:23.654Z,18.90
2022-09-13T23:03:51.266Z,18.90
2022-09-13T23:06:19.550Z,19.00
2022-09-13T23:08:48.122Z,19.00
2022-09-13T23:11:23.703Z,19.00
2022-09-13T23:13:51.925Z,19.00
2022-09-13T23:16:34.691Z,19.00
2022-09-13T23:19:01.576Z,19.00
2022-09-13T23:21:32.202Z,19.00
2022-09-13T23:24:00.146Z,19.00
2022-09-13T23:26:27.382Z,19.00
2022-09-13T23:28:56.730Z,19.00
2022-09-13T23:31:29.317Z,19.00
2022-09-13T23:33:58.781Z,18.80
2022-09-13T23:36:30.787Z,18.70
2022-09-13T23:38:59.180Z,18.70
2022-09-13T23:41:26.479Z,18.60
2022-09-13T23:43:54.111Z,18.60
2022-09-13T23:46:21.333Z,18.60
2022-09-13T23:48:48.475Z,18.60
2022-09-13T23:51:18.162Z,18.60
2022-09-13T23:53:44.832Z,18.60
2022-09-13T23:56:11.959Z,18.60
2022-09-13T23:58:39.128Z,18.60
